Portada
METAR-TAF:

METAR-TAF

Aeroports :

Wellington, Nova Zelanda

latitud: 41-20S, longitud: 174-48E, altitud: 12 m

Observació

L'informe es va fer fa 29 minuts, a les 23:30 UTC
Vent 14 kt del Sud
Temperatura 12°C
Humitat 88%
Pressió 1026 hPa
Visibilitat 10 km o més

METAR: NZWN 292330Z AUTO 17014KT 9999 FEW044/// 12/10 Q1026 NOSIG

Hora: 11:59 (23:59 UTC)

Pronòstic

L'informe es va fer fa 26 minuts, a les 23:33 UTC
Pronòstic vàlid del 30 a les 00 UTC al 31 a les 00 UTC
Vent 15 kt del Sud
Visibilitat 10 km o més
Escasses núvols a una alçada de 1800 ft
Núvols disperses a una alçada de 4500 ft
Evolucionant progressivament
l' 30 a les 10 UTC al 30 a les 12 UTC
Vent 5 kt del Sud/Sud-Est

TAF: NZWN 292333Z 3000/3100 18015KT 9999 FEW018 SCT045 BECMG 3010/3012 15005KT

Observacions i pronòstics meteorològics de més de 4000 aeroports (METAR i TAF).

Les estacions disponibles són els punts grocs i vermells al mapa.

Posi el ratolí al punt desitjat per veure el nom de l'estació.

Feu clic per veure les observacions i els pronòstics meteorològics.

Per canviar el mapa: feu clic els botons verds amb una creu de color negre per apropar; al botó verd amb un guió per allunyar la imatge; o en les fletxes verdes per a mapes adjacents.


METAR-TAF: